sensor_id;sensor_type;location;lat;lon;timestamp;P1;durP1;ratioP1;P2;durP2;ratioP2
18917;SDS011;9591;52.742;13.650;2023-11-19T00:02:05;22.00;;;10.90;;
18917;SDS011;9591;52.742;13.650;2023-11-19T00:04:56;9.97;;;6.20;;
18917;SDS011;9591;52.742;13.650;2023-11-19T00:07:49;8.30;;;5.10;;
18917;SDS011;9591;52.742;13.650;2023-11-19T00:10:43;9.00;;;5.30;;
18917;SDS011;9591;52.742;13.650;2023-11-19T00:13:33;11.83;;;7.17;;
18917;SDS011;9591;52.742;13.650;2023-11-19T00:19:46;9.07;;;4.90;;
18917;SDS011;9591;52.742;13.650;2023-11-19T00:22:47;11.03;;;5.07;;
18917;SDS011;9591;52.742;13.650;2023-11-19T00:25:43;10.20;;;5.73;;
18917;SDS011;9591;52.742;13.650;2023-11-19T00:28:39;9.40;;;5.27;;
18917;SDS011;9591;52.742;13.650;2023-11-19T00:31:31;9.77;;;5.90;;
18917;SDS011;9591;52.742;13.650;2023-11-19T00:34:24;9.23;;;5.97;;
18917;SDS011;9591;52.742;13.650;2023-11-19T00:37:15;8.83;;;6.13;;
18917;SDS011;9591;52.742;13.650;2023-11-19T00:40:07;10.33;;;6.60;;
18917;SDS011;9591;52.742;13.650;2023-11-19T00:42:59;11.37;;;5.53;;
18917;SDS011;9591;52.742;13.650;2023-11-19T00:45:52;8.00;;;5.70;;
18917;SDS011;9591;52.742;13.650;2023-11-19T00:48:42;8.17;;;5.27;;
18917;SDS011;9591;52.742;13.650;2023-11-19T00:51:41;9.37;;;5.20;;
18917;SDS011;9591;52.742;13.650;2023-11-19T00:54:35;8.13;;;5.13;;
18917;SDS011;9591;52.742;13.650;2023-11-19T00:57:24;8.67;;;5.17;;
18917;SDS011;9591;52.742;13.650;2023-11-19T01:00:17;12.03;;;5.77;;
18917;SDS011;9591;52.742;13.650;2023-11-19T01:03:12;10.83;;;6.00;;
18917;SDS011;9591;52.742;13.650;2023-11-19T01:06:06;9.60;;;5.67;;
18917;SDS011;9591;52.742;13.650;2023-11-19T01:09:02;8.73;;;5.43;;
18917;SDS011;9591;52.742;13.650;2023-11-19T01:12:00;9.10;;;5.70;;
18917;SDS011;9591;52.742;13.650;2023-11-19T01:14:51;8.80;;;4.97;;
18917;SDS011;9591;52.742;13.650;2023-11-19T01:17:40;11.80;;;5.27;;
18917;SDS011;9591;52.742;13.650;2023-11-19T01:20:32;10.90;;;6.10;;
18917;SDS011;9591;52.742;13.650;2023-11-19T01:23:26;9.93;;;5.43;;
18917;SDS011;9591;52.742;13.650;2023-11-19T01:26:15;8.47;;;5.43;;
18917;SDS011;9591;52.742;13.650;2023-11-19T01:29:07;8.03;;;5.13;;
18917;SDS011;9591;52.742;13.650;2023-11-19T01:31:54;8.87;;;6.13;;
18917;SDS011;9591;52.742;13.650;2023-11-19T01:34:51;11.20;;;6.03;;
18917;SDS011;9591;52.742;13.650;2023-11-19T01:37:40;9.50;;;5.53;;
18917;SDS011;9591;52.742;13.650;2023-11-19T01:40:28;10.93;;;5.53;;
18917;SDS011;9591;52.742;13.650;2023-11-19T01:46:14;7.13;;;5.07;;
18917;SDS011;9591;52.742;13.650;2023-11-19T01:49:03;8.70;;;5.00;;
18917;SDS011;9591;52.742;13.650;2023-11-19T01:52:00;8.50;;;5.77;;
18917;SDS011;9591;52.742;13.650;2023-11-19T01:54:51;8.37;;;5.27;;
18917;SDS011;9591;52.742;13.650;2023-11-19T01:57:40;8.13;;;5.57;;
18917;SDS011;9591;52.742;13.650;2023-11-19T02:00:28;9.97;;;5.27;;
18917;SDS011;9591;52.742;13.650;2023-11-19T02:03:20;10.10;;;5.90;;
18917;SDS011;9591;52.742;13.650;2023-11-19T02:06:08;10.63;;;5.87;;
18917;SDS011;9591;52.742;13.650;2023-11-19T02:08:57;6.90;;;5.33;;
18917;SDS011;9591;52.742;13.650;2023-11-19T02:11:44;8.70;;;5.80;;
18917;SDS011;9591;52.742;13.650;2023-11-19T02:14:34;10.27;;;5.93;;
18917;SDS011;9591;52.742;13.650;2023-11-19T02:17:26;9.67;;;5.67;;
18917;SDS011;9591;52.742;13.650;2023-11-19T02:20:26;12.33;;;5.40;;
18917;SDS011;9591;52.742;13.650;2023-11-19T02:23:13;8.93;;;5.70;;
18917;SDS011;9591;52.742;13.650;2023-11-19T02:26:05;10.43;;;5.77;;
18917;SDS011;9591;52.742;13.650;2023-11-19T02:29:06;9.10;;;4.93;;
18917;SDS011;9591;52.742;13.650;2023-11-19T02:31:53;6.90;;;5.27;;
18917;SDS011;9591;52.742;13.650;2023-11-19T02:34:46;11.70;;;5.00;;
18917;SDS011;9591;52.742;13.650;2023-11-19T02:37:35;8.10;;;5.40;;
18917;SDS011;9591;52.742;13.650;2023-11-19T02:40:31;7.93;;;5.37;;
18917;SDS011;9591;52.742;13.650;2023-11-19T02:43:18;12.43;;;5.90;;
18917;SDS011;9591;52.742;13.650;2023-11-19T02:46:12;9.20;;;5.67;;
18917;SDS011;9591;52.742;13.650;2023-11-19T02:49:01;9.00;;;5.67;;
18917;SDS011;9591;52.742;13.650;2023-11-19T02:51:52;10.10;;;6.17;;
18917;SDS011;9591;52.742;13.650;2023-11-19T02:54:41;8.07;;;4.23;;
18917;SDS011;9591;52.742;13.650;2023-11-19T02:57:30;12.77;;;6.43;;
18917;SDS011;9591;52.742;13.650;2023-11-19T03:00:18;12.17;;;6.00;;
18917;SDS011;9591;52.742;13.650;2023-11-19T03:03:11;8.63;;;5.30;;
18917;SDS011;9591;52.742;13.650;2023-11-19T03:06:16;10.70;;;5.87;;
18917;SDS011;9591;52.742;13.650;2023-11-19T03:09:03;9.50;;;5.93;;
18917;SDS011;9591;52.742;13.650;2023-11-19T03:11:56;7.83;;;5.50;;
18917;SDS011;9591;52.742;13.650;2023-11-19T03:14:43;7.93;;;5.37;;
18917;SDS011;9591;52.742;13.650;2023-11-19T03:17:33;10.27;;;5.83;;
18917;SDS011;9591;52.742;13.650;2023-11-19T03:20:22;9.40;;;5.43;;
18917;SDS011;9591;52.742;13.650;2023-11-19T03:23:13;10.47;;;5.37;;
18917;SDS011;9591;52.742;13.650;2023-11-19T03:26:02;10.77;;;6.17;;
18917;SDS011;9591;52.742;13.650;2023-11-19T03:28:57;11.63;;;6.60;;
18917;SDS011;9591;52.742;13.650;2023-11-19T03:31:47;11.37;;;5.47;;
18917;SDS011;9591;52.742;13.650;2023-11-19T03:34:35;9.70;;;5.77;;
18917;SDS011;9591;52.742;13.650;2023-11-19T03:37:26;13.10;;;6.43;;
18917;SDS011;9591;52.742;13.650;2023-11-19T03:40:15;8.83;;;5.40;;
18917;SDS011;9591;52.742;13.650;2023-11-19T03:43:06;8.83;;;5.23;;
18917;SDS011;9591;52.742;13.650;2023-11-19T03:45:59;9.37;;;5.60;;
18917;SDS011;9591;52.742;13.650;2023-11-19T03:48:49;10.77;;;5.30;;
18917;SDS011;9591;52.742;13.650;2023-11-19T03:51:37;9.77;;;5.63;;
18917;SDS011;9591;52.742;13.650;2023-11-19T03:54:25;8.80;;;5.57;;
18917;SDS011;9591;52.742;13.650;2023-11-19T03:57:14;10.23;;;5.43;;
18917;SDS011;9591;52.742;13.650;2023-11-19T04:00:02;6.70;;;4.63;;
18917;SDS011;9591;52.742;13.650;2023-11-19T04:03:01;6.60;;;5.37;;
18917;SDS011;9591;52.742;13.650;2023-11-19T04:05:50;12.30;;;6.13;;
18917;SDS011;9591;52.742;13.650;2023-11-19T04:08:37;10.30;;;5.20;;
18917;SDS011;9591;52.742;13.650;2023-11-19T04:11:31;9.30;;;5.90;;
18917;SDS011;9591;52.742;13.650;2023-11-19T04:14:23;11.13;;;6.40;;
18917;SDS011;9591;52.742;13.650;2023-11-19T04:17:15;7.37;;;5.23;;
18917;SDS011;9591;52.742;13.650;2023-11-19T04:20:02;10.03;;;5.70;;
18917;SDS011;9591;52.742;13.650;2023-11-19T04:22:51;9.93;;;5.27;;
18917;SDS011;9591;52.742;13.650;2023-11-19T04:25:40;7.60;;;5.20;;
18917;SDS011;9591;52.742;13.650;2023-11-19T04:28:33;8.70;;;5.50;;
18917;SDS011;9591;52.742;13.650;2023-11-19T04:31:24;12.00;;;5.13;;
18917;SDS011;9591;52.742;13.650;2023-11-19T04:34:18;11.00;;;5.87;;
18917;SDS011;9591;52.742;13.650;2023-11-19T04:37:05;8.13;;;5.20;;
18917;SDS011;9591;52.742;13.650;2023-11-19T04:39:58;11.00;;;5.47;;
18917;SDS011;9591;52.742;13.650;2023-11-19T04:42:53;7.13;;;4.80;;
18917;SDS011;9591;52.742;13.650;2023-11-19T04:45:44;10.80;;;6.00;;
18917;SDS011;9591;52.742;13.650;2023-11-19T04:48:30;8.03;;;5.80;;
18917;SDS011;9591;52.742;13.650;2023-11-19T04:51:27;8.17;;;5.10;;
18917;SDS011;9591;52.742;13.650;2023-11-19T04:54:14;7.20;;;4.80;;
18917;SDS011;9591;52.742;13.650;2023-11-19T04:57:04;8.97;;;5.83;;
18917;SDS011;9591;52.742;13.650;2023-11-19T04:59:53;8.00;;;5.03;;
18917;SDS011;9591;52.742;13.650;2023-11-19T05:02:44;7.20;;;5.07;;
18917;SDS011;9591;52.742;13.650;2023-11-19T05:05:43;8.90;;;5.07;;
18917;SDS011;9591;52.742;13.650;2023-11-19T05:08:35;10.43;;;5.27;;
18917;SDS011;9591;52.742;13.650;2023-11-19T05:11:22;11.77;;;5.53;;
18917;SDS011;9591;52.742;13.650;2023-11-19T05:14:12;8.40;;;5.53;;
18917;SDS011;9591;52.742;13.650;2023-11-19T05:17:03;7.07;;;4.40;;
18917;SDS011;9591;52.742;13.650;2023-11-19T05:19:52;9.80;;;5.37;;
18917;SDS011;9591;52.742;13.650;2023-11-19T05:22:40;9.63;;;5.27;;
18917;SDS011;9591;52.742;13.650;2023-11-19T05:25:28;6.63;;;4.97;;
18917;SDS011;9591;52.742;13.650;2023-11-19T05:28:15;7.87;;;5.57;;
18917;SDS011;9591;52.742;13.650;2023-11-19T05:31:05;7.30;;;5.00;;
18917;SDS011;9591;52.742;13.650;2023-11-19T05:33:57;9.83;;;5.70;;
18917;SDS011;9591;52.742;13.650;2023-11-19T05:36:47;7.40;;;4.97;;
18917;SDS011;9591;52.742;13.650;2023-11-19T05:39:37;5.77;;;4.53;;
18917;SDS011;9591;52.742;13.650;2023-11-19T05:42:27;5.83;;;3.97;;
18917;SDS011;9591;52.742;13.650;2023-11-19T05:45:14;10.77;;;5.20;;
18917;SDS011;9591;52.742;13.650;2023-11-19T05:48:01;10.50;;;5.03;;
18917;SDS011;9591;52.742;13.650;2023-11-19T05:50:58;5.13;;;4.50;;
18917;SDS011;9591;52.742;13.650;2023-11-19T05:53:49;7.27;;;5.23;;
18917;SDS011;9591;52.742;13.650;2023-11-19T05:56:39;8.10;;;4.77;;
18917;SDS011;9591;52.742;13.650;2023-11-19T05:59:28;9.17;;;4.33;;
18917;SDS011;9591;52.742;13.650;2023-11-19T06:02:20;7.37;;;4.27;;
18917;SDS011;9591;52.742;13.650;2023-11-19T06:05:07;6.60;;;4.60;;
18917;SDS011;9591;52.742;13.650;2023-11-19T06:07:57;6.47;;;4.23;;
18917;SDS011;9591;52.742;13.650;2023-11-19T06:10:48;7.83;;;4.70;;
18917;SDS011;9591;52.742;13.650;2023-11-19T06:13:37;7.70;;;4.60;;
18917;SDS011;9591;52.742;13.650;2023-11-19T06:16:25;8.10;;;5.23;;
18917;SDS011;9591;52.742;13.650;2023-11-19T06:19:13;6.40;;;4.20;;
18917;SDS011;9591;52.742;13.650;2023-11-19T06:22:00;6.30;;;4.70;;
18917;SDS011;9591;52.742;13.650;2023-11-19T06:24:47;5.97;;;4.03;;
18917;SDS011;9591;52.742;13.650;2023-11-19T06:27:41;6.50;;;4.70;;
18917;SDS011;9591;52.742;13.650;2023-11-19T06:30:30;8.40;;;4.40;;
18917;SDS011;9591;52.742;13.650;2023-11-19T06:33:19;5.37;;;3.57;;
18917;SDS011;9591;52.742;13.650;2023-11-19T06:36:07;7.60;;;4.20;;
18917;SDS011;9591;52.742;13.650;2023-11-19T06:38:55;6.40;;;4.03;;
18917;SDS011;9591;52.742;13.650;2023-11-19T06:41:44;5.07;;;3.27;;
18917;SDS011;9591;52.742;13.650;2023-11-19T06:44:33;4.90;;;3.87;;
18917;SDS011;9591;52.742;13.650;2023-11-19T06:47:20;5.63;;;3.33;;
18917;SDS011;9591;52.742;13.650;2023-11-19T06:50:07;4.20;;;2.87;;
18917;SDS011;9591;52.742;13.650;2023-11-19T06:52:59;3.90;;;3.13;;
18917;SDS011;9591;52.742;13.650;2023-11-19T06:55:49;3.30;;;2.87;;
18917;SDS011;9591;52.742;13.650;2023-11-19T06:58:38;4.93;;;3.30;;
18917;SDS011;9591;52.742;13.650;2023-11-19T07:01:33;3.60;;;2.80;;
18917;SDS011;9591;52.742;13.650;2023-11-19T07:07:50;10.33;;;3.33;;
18917;SDS011;9591;52.742;13.650;2023-11-19T07:10:40;4.73;;;3.50;;
18917;SDS011;9591;52.742;13.650;2023-11-19T07:13:29;4.03;;;2.87;;
18917;SDS011;9591;52.742;13.650;2023-11-19T07:16:16;2.93;;;2.67;;
18917;SDS011;9591;52.742;13.650;2023-11-19T07:19:11;5.13;;;3.50;;
18917;SDS011;9591;52.742;13.650;2023-11-19T07:21:57;3.33;;;3.03;;
18917;SDS011;9591;52.742;13.650;2023-11-19T07:24:49;5.40;;;3.20;;
18917;SDS011;9591;52.742;13.650;2023-11-19T07:27:37;3.80;;;3.13;;
18917;SDS011;9591;52.742;13.650;2023-11-19T07:30:32;4.00;;;3.30;;
18917;SDS011;9591;52.742;13.650;2023-11-19T07:33:21;4.57;;;3.23;;
18917;SDS011;9591;52.742;13.650;2023-11-19T07:36:12;4.27;;;3.23;;
18917;SDS011;9591;52.742;13.650;2023-11-19T07:39:02;3.77;;;2.90;;
18917;SDS011;9591;52.742;13.650;2023-11-19T07:41:50;7.50;;;3.10;;
18917;SDS011;9591;52.742;13.650;2023-11-19T07:44:40;3.00;;;2.70;;
18917;SDS011;9591;52.742;13.650;2023-11-19T07:47:27;2.90;;;2.53;;
18917;SDS011;9591;52.742;13.650;2023-11-19T07:50:17;4.20;;;3.00;;
18917;SDS011;9591;52.742;13.650;2023-11-19T07:53:09;3.20;;;2.87;;
18917;SDS011;9591;52.742;13.650;2023-11-19T07:56:00;3.30;;;2.57;;
18917;SDS011;9591;52.742;13.650;2023-11-19T07:58:48;3.60;;;2.90;;
18917;SDS011;9591;52.742;13.650;2023-11-19T08:01:35;2.67;;;2.40;;
18917;SDS011;9591;52.742;13.650;2023-11-19T08:04:22;3.30;;;3.00;;
18917;SDS011;9591;52.742;13.650;2023-11-19T08:07:10;2.93;;;2.70;;
18917;SDS011;9591;52.742;13.650;2023-11-19T08:10:04;3.00;;;2.70;;
18917;SDS011;9591;52.742;13.650;2023-11-19T08:12:55;3.47;;;2.80;;
18917;SDS011;9591;52.742;13.650;2023-11-19T08:15:46;2.97;;;2.67;;
18917;SDS011;9591;52.742;13.650;2023-11-19T08:18:36;3.87;;;2.70;;
18917;SDS011;9591;52.742;13.650;2023-11-19T08:21:26;2.67;;;2.47;;
18917;SDS011;9591;52.742;13.650;2023-11-19T08:24:18;3.00;;;2.80;;
18917;SDS011;9591;52.742;13.650;2023-11-19T08:27:09;4.07;;;2.83;;
18917;SDS011;9591;52.742;13.650;2023-11-19T08:29:56;2.83;;;2.40;;
18917;SDS011;9591;52.742;13.650;2023-11-19T08:32:47;2.87;;;2.67;;
18917;SDS011;9591;52.742;13.650;2023-11-19T08:35:35;3.97;;;2.77;;
18917;SDS011;9591;52.742;13.650;2023-11-19T08:38:24;5.83;;;2.60;;
18917;SDS011;9591;52.742;13.650;2023-11-19T08:41:16;2.90;;;2.60;;
18917;SDS011;9591;52.742;13.650;2023-11-19T08:44:07;2.40;;;2.20;;
18917;SDS011;9591;52.742;13.650;2023-11-19T08:46:55;4.20;;;2.60;;
18917;SDS011;9591;52.742;13.650;2023-11-19T08:49:42;2.67;;;2.47;;
18917;SDS011;9591;52.742;13.650;2023-11-19T08:52:52;2.67;;;2.47;;
18917;SDS011;9591;52.742;13.650;2023-11-19T08:55:50;2.50;;;2.30;;
18917;SDS011;9591;52.742;13.650;2023-11-19T08:58:43;2.17;;;1.97;;
18917;SDS011;9591;52.742;13.650;2023-11-19T09:01:33;2.77;;;2.37;;
18917;SDS011;9591;52.742;13.650;2023-11-19T09:04:33;3.43;;;2.60;;
18917;SDS011;9591;52.742;13.650;2023-11-19T09:07:25;4.60;;;2.50;;
18917;SDS011;9591;52.742;13.650;2023-11-19T09:10:14;2.80;;;2.50;;
18917;SDS011;9591;52.742;13.650;2023-11-19T09:13:09;3.40;;;2.60;;
18917;SDS011;9591;52.742;13.650;2023-11-19T09:15:55;2.77;;;2.57;;
18917;SDS011;9591;52.742;13.650;2023-11-19T09:18:52;4.17;;;2.33;;
18917;SDS011;9591;52.742;13.650;2023-11-19T09:24:55;3.30;;;2.93;;
18917;SDS011;9591;52.742;13.650;2023-11-19T09:27:55;3.60;;;2.90;;
18917;SDS011;9591;52.742;13.650;2023-11-19T09:30:48;4.73;;;3.13;;
18917;SDS011;9591;52.742;13.650;2023-11-19T09:33:36;3.73;;;2.87;;
18917;SDS011;9591;52.742;13.650;2023-11-19T09:36:29;3.17;;;2.83;;
18917;SDS011;9591;52.742;13.650;2023-11-19T09:39:18;3.03;;;2.63;;
18917;SDS011;9591;52.742;13.650;2023-11-19T09:42:07;4.80;;;3.57;;
18917;SDS011;9591;52.742;13.650;2023-11-19T09:44:55;3.37;;;3.03;;
18917;SDS011;9591;52.742;13.650;2023-11-19T09:47:54;4.50;;;3.53;;
18917;SDS011;9591;52.742;13.650;2023-11-19T09:50:51;4.30;;;3.30;;
18917;SDS011;9591;52.742;13.650;2023-11-19T09:53:53;3.30;;;3.00;;
18917;SDS011;9591;52.742;13.650;2023-11-19T09:56:42;3.53;;;3.00;;
18917;SDS011;9591;52.742;13.650;2023-11-19T09:59:46;4.90;;;4.00;;
18917;SDS011;9591;52.742;13.650;2023-11-19T10:02:48;5.73;;;3.80;;
18917;SDS011;9591;52.742;13.650;2023-11-19T10:05:39;7.63;;;4.30;;
18917;SDS011;9591;52.742;13.650;2023-11-19T10:08:30;5.37;;;3.73;;
18917;SDS011;9591;52.742;13.650;2023-11-19T10:11:23;6.47;;;4.03;;
18917;SDS011;9591;52.742;13.650;2023-11-19T10:14:10;6.90;;;4.33;;
18917;SDS011;9591;52.742;13.650;2023-11-19T10:17:01;8.67;;;4.47;;
18917;SDS011;9591;52.742;13.650;2023-11-19T10:19:52;6.50;;;5.10;;
18917;SDS011;9591;52.742;13.650;2023-11-19T10:22:52;7.90;;;3.90;;
18917;SDS011;9591;52.742;13.650;2023-11-19T10:25:41;5.47;;;3.70;;
18917;SDS011;9591;52.742;13.650;2023-11-19T10:28:38;5.73;;;4.27;;
18917;SDS011;9591;52.742;13.650;2023-11-19T10:31:36;5.00;;;4.00;;
18917;SDS011;9591;52.742;13.650;2023-11-19T10:34:24;7.00;;;4.20;;
18917;SDS011;9591;52.742;13.650;2023-11-19T10:37:26;7.97;;;4.37;;
18917;SDS011;9591;52.742;13.650;2023-11-19T10:40:18;6.63;;;4.10;;
18917;SDS011;9591;52.742;13.650;2023-11-19T10:43:08;5.50;;;4.53;;
18917;SDS011;9591;52.742;13.650;2023-11-19T10:49:06;6.17;;;4.17;;
18917;SDS011;9591;52.742;13.650;2023-11-19T10:51:56;6.83;;;3.80;;
18917;SDS011;9591;52.742;13.650;2023-11-19T10:54:45;6.97;;;3.70;;
18917;SDS011;9591;52.742;13.650;2023-11-19T10:57:36;4.80;;;3.33;;
18917;SDS011;9591;52.742;13.650;2023-11-19T11:00:29;7.73;;;3.40;;
18917;SDS011;9591;52.742;13.650;2023-11-19T11:03:28;6.67;;;3.23;;
18917;SDS011;9591;52.742;13.650;2023-11-19T11:06:20;7.27;;;3.70;;
18917;SDS011;9591;52.742;13.650;2023-11-19T11:09:20;5.43;;;3.37;;
18917;SDS011;9591;52.742;13.650;2023-11-19T11:12:09;9.17;;;3.10;;
18917;SDS011;9591;52.742;13.650;2023-11-19T11:14:56;4.57;;;2.90;;
18917;SDS011;9591;52.742;13.650;2023-11-19T11:17:45;6.30;;;2.97;;
18917;SDS011;9591;52.742;13.650;2023-11-19T11:20:38;3.13;;;2.83;;
18917;SDS011;9591;52.742;13.650;2023-11-19T11:23:56;6.90;;;2.90;;
18917;SDS011;9591;52.742;13.650;2023-11-19T11:27:10;7.40;;;2.93;;
18917;SDS011;9591;52.742;13.650;2023-11-19T11:30:24;10.10;;;3.07;;
18917;SDS011;9591;52.742;13.650;2023-11-19T11:33:37;7.83;;;2.70;;
18917;SDS011;9591;52.742;13.650;2023-11-19T11:40:14;6.70;;;2.97;;
18917;SDS011;9591;52.742;13.650;2023-11-19T11:43:01;6.57;;;2.73;;
18917;SDS011;9591;52.742;13.650;2023-11-19T11:45:48;14.60;;;3.00;;
18917;SDS011;9591;52.742;13.650;2023-11-19T11:48:40;11.87;;;3.40;;
18917;SDS011;9591;52.742;13.650;2023-11-19T11:55:10;9.70;;;3.30;;
18917;SDS011;9591;52.742;13.650;2023-11-19T11:57:58;11.20;;;2.73;;
18917;SDS011;9591;52.742;13.650;2023-11-19T12:00:53;7.83;;;2.83;;
18917;SDS011;9591;52.742;13.650;2023-11-19T12:03:41;7.53;;;2.47;;
18917;SDS011;9591;52.742;13.650;2023-11-19T12:06:32;7.27;;;2.83;;
18917;SDS011;9591;52.742;13.650;2023-11-19T12:09:20;10.57;;;3.07;;
18917;SDS011;9591;52.742;13.650;2023-11-19T12:12:22;7.07;;;2.80;;
18917;SDS011;9591;52.742;13.650;2023-11-19T12:15:13;11.97;;;2.80;;
18917;SDS011;9591;52.742;13.650;2023-11-19T12:18:03;8.37;;;2.73;;
18917;SDS011;9591;52.742;13.650;2023-11-19T12:20:55;13.43;;;3.57;;
18917;SDS011;9591;52.742;13.650;2023-11-19T12:23:47;11.57;;;3.37;;
18917;SDS011;9591;52.742;13.650;2023-11-19T12:26:40;9.40;;;2.87;;
18917;SDS011;9591;52.742;13.650;2023-11-19T12:29:44;12.57;;;2.93;;
18917;SDS011;9591;52.742;13.650;2023-11-19T12:32:39;10.53;;;3.67;;
18917;SDS011;9591;52.742;13.650;2023-11-19T12:35:31;7.13;;;3.50;;
18917;SDS011;9591;52.742;13.650;2023-11-19T12:38:23;17.33;;;3.60;;
18917;SDS011;9591;52.742;13.650;2023-11-19T12:41:18;11.00;;;2.90;;
18917;SDS011;9591;52.742;13.650;2023-11-19T12:44:22;11.30;;;3.00;;
18917;SDS011;9591;52.742;13.650;2023-11-19T12:47:21;20.37;;;3.40;;
18917;SDS011;9591;52.742;13.650;2023-11-19T12:50:51;12.23;;;3.10;;
18917;SDS011;9591;52.742;13.650;2023-11-19T12:53:52;20.90;;;4.53;;
18917;SDS011;9591;52.742;13.650;2023-11-19T12:56:55;15.63;;;2.60;;
18917;SDS011;9591;52.742;13.650;2023-11-19T12:59:56;18.77;;;3.30;;
18917;SDS011;9591;52.742;13.650;2023-11-19T13:06:02;11.07;;;3.13;;
18917;SDS011;9591;52.742;13.650;2023-11-19T13:09:01;12.07;;;3.23;;
18917;SDS011;9591;52.742;13.650;2023-11-19T13:11:52;6.37;;;2.80;;
18917;SDS011;9591;52.742;13.650;2023-11-19T13:14:42;11.83;;;2.87;;
18917;SDS011;9591;52.742;13.650;2023-11-19T13:17:35;16.40;;;3.80;;
18917;SDS011;9591;52.742;13.650;2023-11-19T13:20:32;16.83;;;3.10;;
18917;SDS011;9591;52.742;13.650;2023-11-19T13:23:21;14.53;;;3.13;;
18917;SDS011;9591;52.742;13.650;2023-11-19T13:26:09;14.47;;;3.17;;
18917;SDS011;9591;52.742;13.650;2023-11-19T13:28:57;10.07;;;2.97;;
18917;SDS011;9591;52.742;13.650;2023-11-19T13:31:46;18.30;;;3.37;;
18917;SDS011;9591;52.742;13.650;2023-11-19T13:34:36;21.83;;;3.00;;
18917;SDS011;9591;52.742;13.650;2023-11-19T13:37:24;22.53;;;3.60;;
18917;SDS011;9591;52.742;13.650;2023-11-19T13:40:16;7.27;;;2.50;;
18917;SDS011;9591;52.742;13.650;2023-11-19T13:43:05;11.63;;;2.73;;
18917;SDS011;9591;52.742;13.650;2023-11-19T13:45:55;15.37;;;3.13;;
18917;SDS011;9591;52.742;13.650;2023-11-19T13:48:48;12.70;;;3.47;;
18917;SDS011;9591;52.742;13.650;2023-11-19T13:51:45;19.27;;;3.53;;
18917;SDS011;9591;52.742;13.650;2023-11-19T13:54:55;16.87;;;3.10;;
18917;SDS011;9591;52.742;13.650;2023-11-19T13:57:52;11.23;;;3.30;;
18917;SDS011;9591;52.742;13.650;2023-11-19T14:00:51;6.67;;;2.60;;
18917;SDS011;9591;52.742;13.650;2023-11-19T14:03:44;16.30;;;3.33;;
18917;SDS011;9591;52.742;13.650;2023-11-19T14:06:40;17.07;;;3.07;;
18917;SDS011;9591;52.742;13.650;2023-11-19T14:09:34;10.50;;;2.80;;
18917;SDS011;9591;52.742;13.650;2023-11-19T14:12:24;14.97;;;3.00;;
18917;SDS011;9591;52.742;13.650;2023-11-19T14:15:15;12.23;;;3.10;;
18917;SDS011;9591;52.742;13.650;2023-11-19T14:18:08;13.67;;;3.83;;
18917;SDS011;9591;52.742;13.650;2023-11-19T14:20:59;14.30;;;3.07;;
18917;SDS011;9591;52.742;13.650;2023-11-19T14:23:48;10.93;;;3.57;;
18917;SDS011;9591;52.742;13.650;2023-11-19T14:26:38;21.63;;;3.23;;
18917;SDS011;9591;52.742;13.650;2023-11-19T14:29:33;17.90;;;3.30;;
18917;SDS011;9591;52.742;13.650;2023-11-19T14:32:21;15.67;;;3.43;;
18917;SDS011;9591;52.742;13.650;2023-11-19T14:35:16;22.93;;;3.53;;
18917;SDS011;9591;52.742;13.650;2023-11-19T14:41:26;15.73;;;3.17;;
18917;SDS011;9591;52.742;13.650;2023-11-19T14:44:14;17.33;;;2.93;;
18917;SDS011;9591;52.742;13.650;2023-11-19T14:47:04;27.80;;;4.57;;
18917;SDS011;9591;52.742;13.650;2023-11-19T14:49:57;18.53;;;2.87;;
18917;SDS011;9591;52.742;13.650;2023-11-19T14:52:44;13.57;;;3.30;;
18917;SDS011;9591;52.742;13.650;2023-11-19T14:55:33;16.70;;;4.63;;
18917;SDS011;9591;52.742;13.650;2023-11-19T14:58:22;17.63;;;3.93;;
18917;SDS011;9591;52.742;13.650;2023-11-19T15:01:12;13.87;;;3.20;;
18917;SDS011;9591;52.742;13.650;2023-11-19T15:04:02;15.57;;;3.53;;
18917;SDS011;9591;52.742;13.650;2023-11-19T15:06:51;8.87;;;2.60;;
18917;SDS011;9591;52.742;13.650;2023-11-19T15:09:41;23.87;;;3.93;;
18917;SDS011;9591;52.742;13.650;2023-11-19T15:12:32;16.97;;;4.23;;
18917;SDS011;9591;52.742;13.650;2023-11-19T15:15:20;15.97;;;3.80;;
18917;SDS011;9591;52.742;13.650;2023-11-19T15:18:10;12.90;;;3.53;;
18917;SDS011;9591;52.742;13.650;2023-11-19T15:21:02;14.80;;;3.13;;
18917;SDS011;9591;52.742;13.650;2023-11-19T15:23:49;18.00;;;3.13;;
18917;SDS011;9591;52.742;13.650;2023-11-19T15:26:38;16.63;;;5.03;;
18917;SDS011;9591;52.742;13.650;2023-11-19T15:29:27;27.43;;;4.03;;
18917;SDS011;9591;52.742;13.650;2023-11-19T15:32:15;12.90;;;2.93;;
18917;SDS011;9591;52.742;13.650;2023-11-19T15:35:04;15.03;;;3.70;;
18917;SDS011;9591;52.742;13.650;2023-11-19T15:37:57;12.67;;;4.03;;
18917;SDS011;9591;52.742;13.650;2023-11-19T15:40:46;16.37;;;3.93;;
18917;SDS011;9591;52.742;13.650;2023-11-19T15:43:37;14.90;;;3.53;;
18917;SDS011;9591;52.742;13.650;2023-11-19T15:46:24;16.90;;;3.07;;
18917;SDS011;9591;52.742;13.650;2023-11-19T15:49:15;20.70;;;3.50;;
18917;SDS011;9591;52.742;13.650;2023-11-19T15:52:05;17.83;;;2.93;;
18917;SDS011;9591;52.742;13.650;2023-11-19T15:54:56;16.50;;;3.97;;
18917;SDS011;9591;52.742;13.650;2023-11-19T15:57:47;23.00;;;3.90;;
18917;SDS011;9591;52.742;13.650;2023-11-19T16:00:36;16.80;;;3.73;;
18917;SDS011;9591;52.742;13.650;2023-11-19T16:03:26;17.50;;;4.23;;
18917;SDS011;9591;52.742;13.650;2023-11-19T16:06:36;10.53;;;3.13;;
18917;SDS011;9591;52.742;13.650;2023-11-19T16:09:25;17.80;;;3.83;;
18917;SDS011;9591;52.742;13.650;2023-11-19T16:12:22;15.53;;;4.27;;
18917;SDS011;9591;52.742;13.650;2023-11-19T16:18:23;16.70;;;2.93;;
18917;SDS011;9591;52.742;13.650;2023-11-19T16:21:13;17.73;;;3.43;;
18917;SDS011;9591;52.742;13.650;2023-11-19T16:24:01;20.37;;;3.70;;
18917;SDS011;9591;52.742;13.650;2023-11-19T16:26:50;18.00;;;3.73;;
18917;SDS011;9591;52.742;13.650;2023-11-19T16:29:42;18.57;;;3.30;;
18917;SDS011;9591;52.742;13.650;2023-11-19T16:32:31;19.17;;;4.17;;
18917;SDS011;9591;52.742;13.650;2023-11-19T16:35:22;16.97;;;3.23;;
18917;SDS011;9591;52.742;13.650;2023-11-19T16:38:09;15.30;;;4.13;;
18917;SDS011;9591;52.742;13.650;2023-11-19T16:41:12;15.80;;;3.80;;
18917;SDS011;9591;52.742;13.650;2023-11-19T16:44:27;17.67;;;3.70;;
18917;SDS011;9591;52.742;13.650;2023-11-19T16:47:15;13.60;;;3.40;;
18917;SDS011;9591;52.742;13.650;2023-11-19T16:50:06;20.03;;;3.87;;
18917;SDS011;9591;52.742;13.650;2023-11-19T16:52:56;15.40;;;3.17;;
18917;SDS011;9591;52.742;13.650;2023-11-19T16:55:54;23.57;;;4.67;;
18917;SDS011;9591;52.742;13.650;2023-11-19T16:58:43;22.17;;;4.23;;
18917;SDS011;9591;52.742;13.650;2023-11-19T17:01:37;11.10;;;3.17;;
18917;SDS011;9591;52.742;13.650;2023-11-19T17:04:29;13.87;;;3.57;;
18917;SDS011;9591;52.742;13.650;2023-11-19T17:07:16;21.00;;;4.70;;
18917;SDS011;9591;52.742;13.650;2023-11-19T17:10:11;15.00;;;3.33;;
18917;SDS011;9591;52.742;13.650;2023-11-19T17:13:00;22.47;;;4.20;;
18917;SDS011;9591;52.742;13.650;2023-11-19T17:15:49;21.27;;;3.87;;
18917;SDS011;9591;52.742;13.650;2023-11-19T17:18:37;25.77;;;4.20;;
18917;SDS011;9591;52.742;13.650;2023-11-19T17:21:28;18.50;;;3.67;;
18917;SDS011;9591;52.742;13.650;2023-11-19T17:24:20;18.27;;;4.07;;
18917;SDS011;9591;52.742;13.650;2023-11-19T17:27:11;17.60;;;4.63;;
18917;SDS011;9591;52.742;13.650;2023-11-19T17:29:59;17.33;;;4.23;;
18917;SDS011;9591;52.742;13.650;2023-11-19T17:32:56;17.73;;;4.60;;
18917;SDS011;9591;52.742;13.650;2023-11-19T17:35:43;13.13;;;3.23;;
18917;SDS011;9591;52.742;13.650;2023-11-19T17:38:31;21.13;;;4.00;;
18917;SDS011;9591;52.742;13.650;2023-11-19T17:41:25;21.10;;;4.13;;
18917;SDS011;9591;52.742;13.650;2023-11-19T17:44:17;12.43;;;3.83;;